Гран При Сингапура: первая практика

Гран При Сингапура: первая практика

Под лучами заходящего солнца началась первая тренировка на трассе Марина Бей. Пилоты не спешили покидать боксы и основную подготовку начали уже при искусственном освещении, которое будет главным отличительным условием квалификации и гонки.

В Сингапур команды привезли множество новинок, которые могут стать последними в этом сезоне. И, похоже, эти обновления позволили Мерседесу и Лотусу сделать шаг вперед и вернуться в борьбу с Ред Буллом.

В середине тренировки Льюис Хэмильтон показал лучшее время на составе Медиум – 1:47.055. Сразу за ним расположились два пилота Ред Булл. При этом, партнер по команде Нико Росберг, показав 4-ое время, проиграл больше одной секунды.

Далее команды перешли на работу с полными баками и время уже никто не смог улучшить. Лишь под конец сессии некоторые пилоты попытались улучшить свое время. Однако, учитывая, что трасса уже остыла, кардинально улучшить свое время им не удалось.

В итоге, Льюис Хэмильтон остался во главе протокола первой тренировки Гран При Сингапура.

Гран При Сингапура/ Марина Бей
Дата20 Сентября 2013Погодабезоблачная
Киевское время13:00-14:30 ч.Температура29-31°C
Местное время18:00-19:30 ч.Влажность.60-73%
Участники22Давление1.007 mBar
Рекорд в гонке1:45.599 мин.Асфальт31-33°C
Рекорд в квалификации1:44.381 мин.Ветер5 м/с, южный

Результаты

Поз.ПилотКомандаВремяОтставаниеот пред.Круги
110L. HamiltonMercedes1:47.055  20
22M. WebberRed Bull1:47.420+0:00.365+0:00.36520
31S. VettelRed Bull1:47.885+0:00.830+0:00.46519
49N. RosbergMercedes1:48.239+0:01.184+0:00.35423
57K. RäikkönenLotus1:48.354+0:01.299+0:00.11518
68R. GrosjeanLotus1:48.355+0:01.300+0:00.00112
73F. AlonsoFerrari1:48.362+0:01.307+0:00.00721
86S. PerezMcLaren1:49.267+0:02.212+0:00.90520
918J. VergneToro Rosso1:49.348+0:02.293+0:00.08123
1012E. GutierrezSauber1:49.355+0:02.300+0:00.00721
1116P. MaldonadoWilliams1:49.481+0:02.426+0:00.12620
124F. MassaFerrari1:49.493+0:02.438+0:00.01216
1317V. BottasWilliams1:49.510+0:02.455+0:00.01721
145J. ButtonMcLaren1:49.608+0:02.553+0:00.09820
1514P. di RestaForce India1:49.887+0:02.832+0:00.27918
1615A. SutilForce India1:50.092+0:03.037+0:00.20520
1711N. HülkenbergSauber1:50.222+0:03.167+0:00.13017
1819D. RicciardoToro Rosso1:50.757+0:03.702+0:00.53516
1922J. BianchiMarussia1:52.359+0:05.304+0:01.60216
2023M. ChiltonMarussia1:52.673+0:05.618+0:00.31415
2121G. van der GardeCaterham1:52.920+0:05.865+0:00.24724
2220C. PicCaterham1:53.647+0:06.592+0:00.72723
 107 % барьер1:54.548 
от пред. = от предыдущего

Будьте частиною чогось більшого

Написати коментар
Показати коментарі
Про цю статтю
Серія Формула 1
Тип статті Важливі новини